createdAt,value
2017-09-11T00:00:15.761Z,988.99
2017-09-11T00:01:15.746Z,989
2017-09-11T00:02:15.746Z,988.97
2017-09-11T00:03:15.725Z,988.93
2017-09-11T00:04:15.709Z,988.92
2017-09-11T00:05:15.724Z,988.93
2017-09-11T00:06:15.680Z,988.92
2017-09-11T00:07:15.667Z,988.9
2017-09-11T00:08:15.652Z,988.92
2017-09-11T00:09:15.642Z,988.89
2017-09-11T00:10:15.627Z,988.85
2017-09-11T00:11:15.612Z,988.74
2017-09-11T00:12:15.628Z,988.83
2017-09-11T00:13:15.589Z,988.78
2017-09-11T00:14:15.572Z,988.69
2017-09-11T00:15:15.560Z,988.73
2017-09-11T00:16:15.545Z,988.69
2017-09-11T00:17:15.532Z,988.71
2017-09-11T00:18:15.518Z,988.69
2017-09-11T00:19:15.504Z,988.68
2017-09-11T00:20:15.490Z,988.7
2017-09-11T00:21:15.480Z,988.66
2017-09-11T00:22:15.464Z,988.67
2017-09-11T00:23:15.652Z,988.68
2017-09-11T00:24:15.437Z,988.57
2017-09-11T00:25:15.427Z,988.56
2017-09-11T00:26:15.409Z,988.52
2017-09-11T00:27:15.396Z,988.55
2017-09-11T00:28:15.384Z,988.49
2017-09-11T00:29:15.370Z,988.56
2017-09-11T00:30:15.357Z,988.48
2017-09-11T00:31:15.343Z,988.45
2017-09-11T00:32:15.329Z,988.46
2017-09-11T00:33:15.318Z,988.47
2017-09-11T00:34:15.305Z,988.49
2017-09-11T00:35:15.292Z,988.44
2017-09-11T00:36:15.275Z,988.51
2017-09-11T00:37:15.261Z,988.51
2017-09-11T00:38:15.248Z,988.53
2017-09-11T00:39:15.235Z,988.46
2017-09-11T00:40:15.224Z,988.46
2017-09-11T00:41:15.208Z,988.44
2017-09-11T00:42:15.196Z,988.43
2017-09-11T00:43:15.181Z,988.4
2017-09-11T00:44:15.167Z,988.33
2017-09-11T00:45:15.157Z,988.4
2017-09-11T00:46:15.155Z,988.43
2017-09-11T00:47:15.127Z,988.41
2017-09-11T00:48:15.114Z,988.37
2017-09-11T00:49:15.103Z,988.39
2017-09-11T00:50:15.087Z,988.36
2017-09-11T00:51:15.076Z,988.31
2017-09-11T00:52:15.060Z,988.31
2017-09-11T00:53:15.051Z,988.29
2017-09-11T00:54:15.035Z,988.31
2017-09-11T00:55:15.021Z,988.32
2017-09-11T00:56:15.011Z,988.32
2017-09-11T00:57:14.995Z,988.36
2017-09-11T00:58:14.980Z,988.31
2017-09-11T00:59:14.969Z,988.31
2017-09-11T01:00:14.955Z,988.28
2017-09-11T01:01:14.942Z,988.31
2017-09-11T01:02:14.931Z,988.3
2017-09-11T01:03:14.917Z,988.26
2017-09-11T01:04:14.903Z,988.27
2017-09-11T01:05:14.888Z,988.28
2017-09-11T01:06:14.878Z,988.29
2017-09-11T01:07:14.870Z,988.3
2017-09-11T01:08:14.857Z,988.34
2017-09-11T01:09:14.835Z,988.41
2017-09-11T01:10:14.827Z,988.32
2017-09-11T01:11:14.809Z,988.37
2017-09-11T01:12:14.794Z,988.32
2017-09-11T01:13:14.781Z,988.35
2017-09-11T01:14:14.769Z,988.36
2017-09-11T01:15:14.756Z,988.33
2017-09-11T01:16:14.742Z,988.34
2017-09-11T01:17:14.731Z,988.39
2017-09-11T01:18:14.715Z,988.29
2017-09-11T01:19:14.703Z,988.29
2017-09-11T01:20:14.692Z,988.35
2017-09-11T01:21:14.678Z,988.26
2017-09-11T01:22:14.663Z,988.22
2017-09-11T01:23:14.648Z,988.26
2017-09-11T01:24:14.634Z,988.21
2017-09-11T01:25:14.625Z,988.26
2017-09-11T01:26:14.610Z,988.28
2017-09-11T01:27:14.595Z,988.27
2017-09-11T01:28:14.583Z,988.25
2017-09-11T01:29:14.569Z,988.3
2017-09-11T01:30:14.560Z,988.24
2017-09-11T01:31:14.546Z,988.22
2017-09-11T01:32:14.530Z,988.27
2017-09-11T01:33:14.517Z,988.27
2017-09-11T01:34:14.501Z,988.21
2017-09-11T01:35:14.498Z,988.24
2017-09-11T01:36:14.486Z,988.25
2017-09-11T01:37:14.464Z,988.24
2017-09-11T01:38:14.448Z,988.21
2017-09-11T01:39:14.438Z,988.29
2017-09-11T01:40:14.427Z,988.22
2017-09-11T01:41:14.409Z,988.2
2017-09-11T01:42:14.396Z,988.28
2017-09-11T01:43:14.382Z,988.24
2017-09-11T01:44:14.369Z,988.3
2017-09-11T01:45:14.355Z,988.31
2017-09-11T01:46:14.340Z,988.25
2017-09-11T01:47:14.332Z,988.4
2017-09-11T01:48:14.316Z,988.32
2017-09-11T01:49:14.303Z,988.28
2017-09-11T01:50:14.286Z,988.29
2017-09-11T01:51:14.274Z,988.23
2017-09-11T01:52:14.261Z,988.21
2017-09-11T01:53:14.252Z,988.27
2017-09-11T01:54:14.238Z,988.21
2017-09-11T01:55:14.219Z,988.17
2017-09-11T01:56:14.206Z,988.15
2017-09-11T01:57:14.192Z,988.18
2017-09-11T01:58:14.184Z,988.06
2017-09-11T01:59:14.168Z,988.03
2017-09-11T02:00:14.151Z,988.11
2017-09-11T02:01:14.140Z,988.01
2017-09-11T02:02:14.124Z,988.03
2017-09-11T02:03:14.112Z,988.03
2017-09-11T02:04:14.098Z,988.04
2017-09-11T02:05:14.090Z,988.01
2017-09-11T02:06:14.071Z,987.97
2017-09-11T02:07:14.058Z,987.89
2017-09-11T02:08:14.043Z,987.92
2017-09-11T02:09:14.031Z,987.86
2017-09-11T02:10:14.017Z,987.82
2017-09-11T02:11:14.005Z,987.79
2017-09-11T02:12:13.989Z,987.82
2017-09-11T02:13:13.976Z,987.86
2017-09-11T02:14:13.962Z,987.7
2017-09-11T02:15:13.948Z,987.71
2017-09-11T02:16:13.937Z,987.7
2017-09-11T02:17:13.920Z,987.69
2017-09-11T02:18:13.908Z,987.75
2017-09-11T02:19:13.894Z,987.68
2017-09-11T02:20:13.880Z,987.65
2017-09-11T02:21:13.871Z,987.65
2017-09-11T02:22:13.853Z,987.66
2017-09-11T02:23:14.042Z,987.68
2017-09-11T02:24:13.830Z,987.64
2017-09-11T02:25:13.815Z,987.62
2017-09-11T02:26:13.799Z,987.7
2017-09-11T02:27:13.791Z,987.61
2017-09-11T02:28:13.771Z,987.65
2017-09-11T02:29:13.765Z,987.63
2017-09-11T02:30:13.747Z,987.59
2017-09-11T02:31:13.737Z,987.57
2017-09-11T02:32:13.919Z,987.62
2017-09-11T02:33:13.702Z,987.57
2017-09-11T02:34:13.688Z,987.56
2017-09-11T02:35:13.677Z,987.61
2017-09-11T02:36:13.660Z,987.54
2017-09-11T02:37:13.649Z,987.62
2017-09-11T02:38:13.637Z,987.62
2017-09-11T02:39:13.620Z,987.61
2017-09-11T02:40:13.610Z,987.62
2017-09-11T02:41:13.593Z,987.54
2017-09-11T02:42:13.582Z,987.54
2017-09-11T02:43:13.568Z,987.58
2017-09-11T02:44:13.554Z,987.57
2017-09-11T02:45:13.539Z,987.5
2017-09-11T02:46:13.526Z,987.45
2017-09-11T02:47:13.513Z,987.48
2017-09-11T02:48:13.500Z,987.45
2017-09-11T02:49:13.485Z,987.46
2017-09-11T02:50:13.472Z,987.36
2017-09-11T02:51:13.457Z,987.33
2017-09-11T02:52:13.444Z,987.4
2017-09-11T02:53:13.431Z,987.3
2017-09-11T02:54:13.415Z,987.31
2017-09-11T02:55:13.401Z,987.24
2017-09-11T02:56:13.389Z,987.32
2017-09-11T02:57:13.375Z,987.33
2017-09-11T02:58:13.372Z,987.31
2017-09-11T02:59:13.349Z,987.17
2017-09-11T03:00:13.335Z,987.26
2017-09-11T03:01:13.323Z,987.25
2017-09-11T03:02:13.311Z,987.27
2017-09-11T03:03:13.294Z,987.27
2017-09-11T03:04:13.278Z,987.28
2017-09-11T03:05:13.271Z,987.3
2017-09-11T03:06:13.253Z,987.28
2017-09-11T03:07:13.239Z,987.28
2017-09-11T03:08:13.225Z,987.25
2017-09-11T03:09:13.217Z,987.4
2017-09-11T03:10:13.198Z,987.39
2017-09-11T03:11:13.208Z,987.4
2017-09-11T03:12:13.172Z,987.33
2017-09-11T03:13:13.158Z,987.3
2017-09-11T03:14:13.143Z,987.24
2017-09-11T03:15:13.130Z,987.26
2017-09-11T03:16:13.119Z,987.23
2017-09-11T03:17:13.105Z,987.26
2017-09-11T03:18:13.089Z,987.26
2017-09-11T03:19:13.079Z,987.31
2017-09-11T03:20:13.062Z,987.2
2017-09-11T03:21:13.061Z,987.24
2017-09-11T03:22:13.035Z,987.18
2017-09-11T03:23:13.022Z,987.23
2017-09-11T03:24:13.009Z,987.26
2017-09-11T03:25:12.995Z,987.17
2017-09-11T03:26:12.982Z,987.2
2017-09-11T03:27:12.968Z,987.2
2017-09-11T03:28:12.955Z,987.13
2017-09-11T03:29:12.941Z,987.17
2017-09-11T03:30:12.931Z,987.2
2017-09-11T03:31:12.918Z,987.28
2017-09-11T03:32:12.901Z,987.23
2017-09-11T03:33:12.888Z,987.23
2017-09-11T03:34:12.883Z,987.21
2017-09-11T03:35:12.860Z,987.24
2017-09-11T03:36:12.847Z,987.24
2017-09-11T03:37:12.835Z,987.13
2017-09-11T03:38:12.820Z,987.25
2017-09-11T03:39:12.808Z,987.27
2017-09-11T03:40:12.795Z,987.27
2017-09-11T03:41:12.781Z,987.34
2017-09-11T03:42:12.767Z,987.29
2017-09-11T03:43:12.753Z,987.27
2017-09-11T03:44:12.740Z,987.2
2017-09-11T03:45:12.730Z,987.28
2017-09-11T03:46:12.714Z,987.29
2017-09-11T03:47:12.699Z,987.25
2017-09-11T03:48:12.686Z,987.27
2017-09-11T03:49:12.672Z,987.27
2017-09-11T03:50:12.658Z,987.36
2017-09-11T03:51:12.644Z,987.35
2017-09-11T03:52:12.632Z,987.31
2017-09-11T03:53:12.620Z,987.35
2017-09-11T03:54:12.603Z,987.36
2017-09-11T03:55:12.598Z,987.3
2017-09-11T03:56:12.579Z,987.29
2017-09-11T03:57:12.562Z,987.37
2017-09-11T03:58:12.546Z,987.4
2017-09-11T03:59:12.533Z,987.41
2017-09-11T04:00:12.517Z,987.41
2017-09-11T04:01:12.505Z,987.46
2017-09-11T04:02:12.490Z,987.43
2017-09-11T04:03:12.478Z,987.44
2017-09-11T04:04:12.463Z,987.44
2017-09-11T04:05:12.445Z,987.44
2017-09-11T04:06:12.464Z,987.35
2017-09-11T04:07:12.418Z,987.4
2017-09-11T04:08:12.402Z,987.36
2017-09-11T04:09:12.394Z,987.4
2017-09-11T04:10:12.375Z,987.36
2017-09-11T04:11:12.359Z,987.41
2017-09-11T04:12:12.364Z,987.41
2017-09-11T04:13:12.331Z,987.38
2017-09-11T04:14:12.317Z,987.41
2017-09-11T04:15:12.302Z,987.38
2017-09-11T04:16:12.290Z,987.36
2017-09-11T04:17:12.273Z,987.34
2017-09-11T04:18:12.268Z,987.36
2017-09-11T04:19:12.246Z,987.3
2017-09-11T04:20:12.232Z,987.3
2017-09-11T04:21:12.215Z,987.34
2017-09-11T04:22:12.200Z,987.41
2017-09-11T04:23:12.387Z,987.32
2017-09-11T04:24:12.170Z,987.33
2017-09-11T04:25:12.160Z,987.39
2017-09-11T04:26:12.142Z,987.28
2017-09-11T04:27:12.131Z,987.33
2017-09-11T04:28:12.112Z,987.32
2017-09-11T04:29:12.098Z,987.31
2017-09-11T04:30:12.083Z,987.34
2017-09-11T04:31:12.068Z,987.38
2017-09-11T04:32:12.053Z,987.35
2017-09-11T04:33:12.039Z,987.29
2017-09-11T04:34:12.024Z,987.38
2017-09-11T04:35:12.009Z,987.38
2017-09-11T04:36:11.994Z,987.35
2017-09-11T04:37:12.015Z,987.32
2017-09-11T04:38:11.966Z,987.29
2017-09-11T04:39:11.951Z,987.29
2017-09-11T04:40:11.939Z,987.3
2017-09-11T04:41:11.926Z,987.31
2017-09-11T04:42:11.909Z,987.34
2017-09-11T04:43:11.897Z,987.31
2017-09-11T04:44:11.877Z,987.33
2017-09-11T04:45:11.875Z,987.26
2017-09-11T04:46:11.866Z,987.33
2017-09-11T04:47:11.840Z,987.36
2017-09-11T04:48:11.820Z,987.34
2017-09-11T04:49:11.806Z,987.33
2017-09-11T04:50:11.792Z,987.36
2017-09-11T04:51:11.779Z,987.4
2017-09-11T04:52:11.764Z,987.38
2017-09-11T04:53:11.749Z,987.39
2017-09-11T04:54:11.731Z,987.38
2017-09-11T04:55:11.720Z,987.4
2017-09-11T04:56:11.705Z,987.39
2017-09-11T04:57:11.688Z,987.36
2017-09-11T04:58:11.677Z,987.34
2017-09-11T04:59:11.659Z,987.33
2017-09-11T05:00:11.644Z,987.26
2017-09-11T05:01:11.634Z,987.28
2017-09-11T05:02:11.616Z,987.28
2017-09-11T05:03:11.613Z,987.27
2017-09-11T05:04:11.590Z,987.3
2017-09-11T05:05:11.575Z,987.31
2017-09-11T05:06:11.559Z,987.33
2017-09-11T05:07:11.542Z,987.34
2017-09-11T05:08:11.532Z,987.35
2017-09-11T05:09:11.515Z,987.36
2017-09-11T05:10:11.497Z,987.32
2017-09-11T05:11:11.484Z,987.36
2017-09-11T05:12:11.470Z,987.36
2017-09-11T05:13:11.456Z,987.37
2017-09-11T05:14:11.444Z,987.47
2017-09-11T05:15:11.426Z,987.43
2017-09-11T05:16:11.411Z,987.44
2017-09-11T05:17:11.399Z,987.49
2017-09-11T05:18:11.382Z,987.44
2017-09-11T05:19:11.366Z,987.43
2017-09-11T05:20:11.353Z,987.41
2017-09-11T05:21:11.337Z,987.45
2017-09-11T05:22:11.326Z,987.44
2017-09-11T05:23:11.314Z,987.44
2017-09-11T05:24:11.293Z,987.43
2017-09-11T05:25:11.282Z,987.45
2017-09-11T05:26:11.264Z,987.48
2017-09-11T05:27:11.252Z,987.51
2017-09-11T05:28:11.235Z,987.52
2017-09-11T05:29:11.224Z,987.5
2017-09-11T05:30:11.205Z,987.49
2017-09-11T05:31:11.194Z,987.48
2017-09-11T05:32:11.181Z,987.44
2017-09-11T05:33:11.164Z,987.48
2017-09-11T05:34:11.148Z,987.45
2017-09-11T05:35:11.135Z,987.48
2017-09-11T05:36:11.120Z,987.42
2017-09-11T05:37:11.104Z,987.36
2017-09-11T05:38:11.094Z,987.39
2017-09-11T05:39:11.075Z,987.39
2017-09-11T05:40:11.060Z,987.36
2017-09-11T05:41:11.045Z,987.34
2017-09-11T05:42:11.032Z,987.31
2017-09-11T05:43:11.018Z,987.3
2017-09-11T05:44:11.003Z,987.31
2017-09-11T05:45:10.987Z,987.31
2017-09-11T05:46:10.972Z,987.31
2017-09-11T05:47:10.963Z,987.35
2017-09-11T05:48:10.946Z,987.4
2017-09-11T05:49:10.931Z,987.36
2017-09-11T05:50:10.918Z,987.33
2017-09-11T05:51:10.901Z,987.34
2017-09-11T05:52:10.887Z,987.34
2017-09-11T05:53:10.875Z,987.35
2017-09-11T05:54:10.858Z,987.38
2017-09-11T05:55:10.844Z,987.42
2017-09-11T05:56:10.830Z,987.44
2017-09-11T05:57:10.817Z,987.51
2017-09-11T05:58:10.801Z,987.56
2017-09-11T05:59:10.787Z,987.54
2017-09-11T06:00:10.774Z,987.54
2017-09-11T06:01:10.760Z,987.56
2017-09-11T06:02:10.744Z,987.59
2017-09-11T06:03:10.732Z,987.6
2017-09-11T06:04:10.717Z,987.54
2017-09-11T06:05:10.702Z,987.51
2017-09-11T06:06:10.687Z,987.5
2017-09-11T06:07:10.672Z,987.5
2017-09-11T06:08:10.660Z,987.53
2017-09-11T06:09:10.643Z,987.49
2017-09-11T06:10:10.634Z,987.47
2017-09-11T06:11:10.617Z,987.46
2017-09-11T06:12:10.602Z,987.47
2017-09-11T06:13:10.590Z,987.54
2017-09-11T06:14:10.575Z,987.49
2017-09-11T06:15:10.565Z,987.49
2017-09-11T06:16:10.548Z,987.52
2017-09-11T06:17:10.531Z,987.43
2017-09-11T06:18:10.517Z,987.54
2017-09-11T06:19:10.504Z,987.53
2017-09-11T06:20:10.494Z,987.52
2017-09-11T06:21:10.482Z,987.51
2017-09-11T06:22:10.463Z,987.52
2017-09-11T06:23:10.680Z,987.51
2017-09-11T06:24:10.433Z,987.53
2017-09-11T06:25:10.422Z,987.5
2017-09-11T06:26:10.409Z,987.53
2017-09-11T06:27:10.389Z,987.52
2017-09-11T06:28:10.380Z,987.48
2017-09-11T06:29:10.362Z,987.47
2017-09-11T06:30:10.350Z,987.45
2017-09-11T06:31:10.334Z,987.49
2017-09-11T06:32:10.321Z,987.49
2017-09-11T06:33:10.305Z,987.44
2017-09-11T06:34:10.291Z,987.46
2017-09-11T06:35:10.279Z,987.48
2017-09-11T06:36:10.264Z,987.49
2017-09-11T06:37:10.252Z,987.45
2017-09-11T06:38:10.235Z,987.45
2017-09-11T06:39:10.226Z,987.45
2017-09-11T06:40:10.210Z,987.47
2017-09-11T06:41:10.194Z,987.5
2017-09-11T06:42:10.183Z,987.5
2017-09-11T06:43:10.168Z,987.43
2017-09-11T06:44:10.156Z,987.49
2017-09-11T06:45:10.142Z,987.5
2017-09-11T06:46:10.132Z,987.49
2017-09-11T06:47:10.116Z,987.49
2017-09-11T06:48:10.103Z,987.46
2017-09-11T06:49:10.086Z,987.47
2017-09-11T06:50:10.074Z,987.48
2017-09-11T06:51:10.062Z,987.46
2017-09-11T06:52:10.045Z,987.48
2017-09-11T06:53:10.035Z,987.44
2017-09-11T06:54:10.017Z,987.48
2017-09-11T06:55:10.005Z,987.47
2017-09-11T06:56:09.993Z,987.5
2017-09-11T06:57:09.975Z,987.55
2017-09-11T06:58:09.962Z,987.52
2017-09-11T06:59:09.950Z,987.49
2017-09-11T07:00:09.940Z,987.57
2017-09-11T07:01:09.923Z,987.53
2017-09-11T07:02:09.909Z,987.55
2017-09-11T07:03:09.894Z,987.56
2017-09-11T07:04:09.886Z,987.56
2017-09-11T07:05:09.871Z,987.58
2017-09-11T07:06:09.855Z,987.54
2017-09-11T07:07:09.841Z,987.54
2017-09-11T07:08:09.829Z,987.53
2017-09-11T07:09:09.814Z,987.54
2017-09-11T07:10:09.805Z,987.6
2017-09-11T07:11:09.786Z,987.57
2017-09-11T07:12:09.772Z,987.63
2017-09-11T07:13:09.758Z,987.64
2017-09-11T07:14:09.744Z,987.7
2017-09-11T07:15:09.733Z,987.7
2017-09-11T07:16:09.718Z,987.67
2017-09-11T07:17:09.709Z,987.72
2017-09-11T07:18:09.693Z,987.71
2017-09-11T07:19:09.679Z,987.78
2017-09-11T07:20:09.668Z,987.8
2017-09-11T07:21:09.652Z,987.82
2017-09-11T07:22:09.637Z,987.79
2017-09-11T07:23:09.626Z,987.73
2017-09-11T07:24:09.616Z,987.74
2017-09-11T07:25:09.596Z,987.74
2017-09-11T07:26:09.587Z,987.69
2017-09-11T07:27:09.569Z,987.7
2017-09-11T07:28:09.559Z,987.67
2017-09-11T07:29:09.544Z,987.71
2017-09-11T07:30:09.531Z,987.7
2017-09-11T07:31:09.518Z,987.72
2017-09-11T07:32:09.502Z,987.71
2017-09-11T07:33:09.489Z,987.68
2017-09-11T07:34:09.476Z,987.68
2017-09-11T07:35:09.463Z,987.72
2017-09-11T07:36:09.451Z,987.7
2017-09-11T07:37:09.438Z,987.72
2017-09-11T07:38:09.422Z,987.76
2017-09-11T07:39:09.410Z,987.7
2017-09-11T07:40:09.395Z,987.71
2017-09-11T07:41:09.382Z,987.73
2017-09-11T07:42:09.371Z,987.73
2017-09-11T07:43:09.357Z,987.79
2017-09-11T07:44:09.344Z,987.79
2017-09-11T07:45:09.331Z,987.78
2017-09-11T07:46:09.321Z,987.81
2017-09-11T07:47:09.307Z,987.81
2017-09-11T07:48:09.295Z,987.79
2017-09-11T07:49:09.284Z,987.86
2017-09-11T07:50:09.269Z,987.85
2017-09-11T07:51:09.252Z,987.83
2017-09-11T07:52:09.241Z,987.85
2017-09-11T07:53:09.230Z,987.89
2017-09-11T07:54:09.214Z,987.93
2017-09-11T07:55:09.201Z,987.89
2017-09-11T07:56:09.189Z,987.88
2017-09-11T07:57:09.176Z,987.99
2017-09-11T07:58:09.162Z,987.98
2017-09-11T07:59:09.149Z,988.01
2017-09-11T08:00:09.137Z,988
2017-09-11T08:01:09.125Z,987.97
2017-09-11T08:02:09.109Z,987.97
2017-09-11T08:03:09.098Z,987.99
2017-09-11T08:04:09.086Z,987.95
2017-09-11T08:05:09.078Z,987.98
2017-09-11T08:06:09.059Z,987.97
2017-09-11T08:07:09.046Z,987.95
2017-09-11T08:08:09.033Z,987.99
2017-09-11T08:09:09.021Z,988
2017-09-11T08:10:09.006Z,987.98
2017-09-11T08:11:09.002Z,987.96
2017-09-11T08:12:08.980Z,988.01
2017-09-11T08:13:08.967Z,987.94
2017-09-11T08:14:08.954Z,987.92
2017-09-11T08:15:08.944Z,987.85
2017-09-11T08:16:08.931Z,987.84
2017-09-11T08:17:08.916Z,987.84
2017-09-11T08:18:08.907Z,987.87
2017-09-11T08:19:08.894Z,987.95
2017-09-11T08:20:08.879Z,987.95
2017-09-11T08:21:08.867Z,987.96
2017-09-11T08:22:08.854Z,987.98
2017-09-11T08:23:08.844Z,988.04
2017-09-11T08:24:08.832Z,988.07
2017-09-11T08:25:08.824Z,988.09
2017-09-11T08:26:08.807Z,988.15
2017-09-11T08:27:08.794Z,988.06
2017-09-11T08:28:08.784Z,988.1
2017-09-11T08:29:08.769Z,988.08
2017-09-11T08:30:08.760Z,988.17
2017-09-11T08:31:08.745Z,988.1
2017-09-11T08:32:08.733Z,988.27
2017-09-11T08:33:08.755Z,988.08
2017-09-11T08:34:08.708Z,988.16
2017-09-11T08:35:08.696Z,988.14
2017-09-11T08:36:08.686Z,988.16
2017-09-11T08:37:08.672Z,988.12
2017-09-11T08:38:08.660Z,988.1
2017-09-11T08:39:08.646Z,988.16
2017-09-11T08:40:08.635Z,988.21
2017-09-11T08:41:08.627Z,988.17
2017-09-11T08:42:08.611Z,988.21
2017-09-11T08:43:08.599Z,988.29
2017-09-11T08:44:08.587Z,988.22
2017-09-11T08:45:08.574Z,988.24
2017-09-11T08:46:08.569Z,988.25
2017-09-11T08:47:08.551Z,988.28
2017-09-11T08:48:08.538Z,988.35
2017-09-11T08:49:08.528Z,988.29
2017-09-11T08:50:08.516Z,988.29
2017-09-11T08:51:08.507Z,988.35
2017-09-11T08:52:08.495Z,988.39
2017-09-11T08:53:08.478Z,988.42
2017-09-11T08:54:08.465Z,988.47
2017-09-11T08:55:08.454Z,988.43
2017-09-11T08:56:08.448Z,988.34
2017-09-11T08:57:08.430Z,988.31
2017-09-11T08:58:08.416Z,988.45
2017-09-11T08:59:08.414Z,988.31
2017-09-11T09:00:08.393Z,988.28
2017-09-11T09:01:08.380Z,988.33
2017-09-11T09:02:08.368Z,988.35
2017-09-11T09:03:08.356Z,988.34
2017-09-11T09:04:08.345Z,988.32
2017-09-11T09:05:08.334Z,988.33
2017-09-11T09:06:08.328Z,988.28
2017-09-11T09:07:08.306Z,988.28
2017-09-11T09:08:08.296Z,988.24
2017-09-11T09:09:08.284Z,988.29
2017-09-11T09:10:08.279Z,988.27
2017-09-11T09:11:08.258Z,988.25
2017-09-11T09:12:08.249Z,988.23
2017-09-11T09:13:08.236Z,988.33
2017-09-11T09:14:08.225Z,988.25
2017-09-11T09:15:08.212Z,988.24
2017-09-11T09:16:08.205Z,988.33
2017-09-11T09:17:08.188Z,988.34
2017-09-11T09:18:08.174Z,988.31
2017-09-11T09:19:08.166Z,988.3
2017-09-11T09:20:08.153Z,988.28
2017-09-11T09:21:08.144Z,988.27
2017-09-11T09:22:08.134Z,988.33
2017-09-11T09:23:08.119Z,988.34
2017-09-11T09:24:08.112Z,988.37
2017-09-11T09:25:08.096Z,988.34
2017-09-11T09:26:08.090Z,988.26
2017-09-11T09:27:08.072Z,988.28
2017-09-11T09:28:08.060Z,988.31
2017-09-11T09:29:08.051Z,988.32
2017-09-11T09:30:08.039Z,988.24
2017-09-11T09:31:08.030Z,988.35
2017-09-11T09:32:08.019Z,988.26
2017-09-11T09:33:08.005Z,988.3
2017-09-11T09:34:08.000Z,988.33
2017-09-11T09:35:07.985Z,988.27
2017-09-11T09:36:07.973Z,988.3
2017-09-11T09:37:07.967Z,988.22
2017-09-11T09:38:07.950Z,988.24
2017-09-11T09:39:07.940Z,988.26
2017-09-11T09:40:07.929Z,988.2
2017-09-11T09:41:07.918Z,988.29
2017-09-11T09:42:07.906Z,988.17
2017-09-11T09:43:07.895Z,988.23
2017-09-11T09:44:07.884Z,988.29
2017-09-11T09:45:07.872Z,988.21
2017-09-11T09:46:07.863Z,988.25
2017-09-11T09:47:07.850Z,988.26
2017-09-11T09:48:07.839Z,988.26
2017-09-11T09:49:07.830Z,988.28
2017-09-11T09:50:07.815Z,988.26
2017-09-11T09:51:07.805Z,988.23
2017-09-11T09:52:07.792Z,988.17
2017-09-11T09:53:07.781Z,988.26
2017-09-11T09:54:07.768Z,988.27
2017-09-11T09:55:07.757Z,988.23
2017-09-11T09:56:07.748Z,988.27
2017-09-11T09:57:07.735Z,988.23
2017-09-11T09:58:07.726Z,988.25
2017-09-11T09:59:07.715Z,988.26
2017-09-11T10:00:07.708Z,988.41
2017-09-11T10:01:07.691Z,988.34
2017-09-11T10:02:07.678Z,988.32
2017-09-11T10:03:07.667Z,988.27
2017-09-11T10:04:07.656Z,988.28
2017-09-11T10:05:07.647Z,988.3
2017-09-11T10:06:07.637Z,988.24
2017-09-11T10:07:07.625Z,988.33
2017-09-11T10:08:07.613Z,988.32
2017-09-11T10:09:07.600Z,988.36
2017-09-11T10:10:07.588Z,988.42
2017-09-11T10:11:07.578Z,988.46
2017-09-11T10:12:07.574Z,988.43
2017-09-11T10:13:07.558Z,988.32
2017-09-11T10:14:07.543Z,988.32
2017-09-11T10:15:07.530Z,988.34
2017-09-11T10:16:07.520Z,988.43
2017-09-11T10:17:07.509Z,988.35
2017-09-11T10:18:07.497Z,988.34
2017-09-11T10:19:07.485Z,988.42
2017-09-11T10:20:07.475Z,988.32
2017-09-11T10:21:07.461Z,988.34
2017-09-11T10:22:07.450Z,988.28
2017-09-11T10:23:07.441Z,988.34
2017-09-11T10:24:07.629Z,988.27
2017-09-11T10:25:07.421Z,988.28
2017-09-11T10:26:07.404Z,988.26
2017-09-11T10:27:07.393Z,988.31
2017-09-11T10:28:07.381Z,988.29
2017-09-11T10:29:07.370Z,988.28
2017-09-11T10:30:07.361Z,988.32
2017-09-11T10:31:07.347Z,988.33
2017-09-11T10:32:07.334Z,988.37
2017-09-11T10:33:07.323Z,988.4
2017-09-11T10:34:07.312Z,988.41
2017-09-11T10:35:07.303Z,988.37
2017-09-11T10:36:07.293Z,988.41
2017-09-11T10:37:07.278Z,988.46
2017-09-11T10:38:07.277Z,988.43
2017-09-11T10:39:07.254Z,988.39
2017-09-11T10:40:07.246Z,988.4
2017-09-11T10:41:07.235Z,988.44
2017-09-11T10:42:07.222Z,988.39
2017-09-11T10:43:07.219Z,988.43
2017-09-11T10:44:07.200Z,988.37
2017-09-11T10:45:07.190Z,988.37
2017-09-11T10:46:07.177Z,988.4
2017-09-11T10:47:07.168Z,988.39
2017-09-11T10:48:07.155Z,988.35
2017-09-11T10:49:07.159Z,988.46
2017-09-11T10:50:07.135Z,988.46
2017-09-11T10:51:07.127Z,988.54
2017-09-11T10:52:07.114Z,988.53
2017-09-11T10:53:07.102Z,988.62
2017-09-11T10:54:07.090Z,988.6
2017-09-11T10:55:07.082Z,988.69
2017-09-11T10:56:07.068Z,988.64
2017-09-11T10:57:07.062Z,988.66
2017-09-11T10:58:07.045Z,988.61
2017-09-11T10:59:07.035Z,988.61
2017-09-11T11:00:07.023Z,988.6
2017-09-11T11:01:07.013Z,988.59
2017-09-11T11:02:07.000Z,988.57
2017-09-11T11:03:06.983Z,988.6
2017-09-11T11:04:06.978Z,988.66
2017-09-11T11:05:06.964Z,988.88
2017-09-11T11:06:06.952Z,988.71
2017-09-11T11:07:06.936Z,988.68
2017-09-11T11:08:06.922Z,988.62
2017-09-11T11:09:06.914Z,988.64
2017-09-11T11:10:06.901Z,988.59
2017-09-11T11:11:06.887Z,988.61
2017-09-11T11:12:06.871Z,988.55
2017-09-11T11:13:06.862Z,988.5
2017-09-11T11:14:06.849Z,988.6
2017-09-11T11:15:06.834Z,988.4
2017-09-11T11:16:06.822Z,988.52
2017-09-11T11:17:06.835Z,988.45
2017-09-11T11:18:06.797Z,988.56
2017-09-11T11:19:06.787Z,988.51
2017-09-11T11:20:06.774Z,988.56
2017-09-11T11:21:06.764Z,988.63
2017-09-11T11:22:06.757Z,988.66
2017-09-11T11:23:06.752Z,988.65
2017-09-11T11:24:06.735Z,988.49
2017-09-11T11:25:06.725Z,988.57
2017-09-11T11:26:06.720Z,988.68
2017-09-11T11:27:06.709Z,988.59
2017-09-11T11:28:06.701Z,988.66
2017-09-11T11:29:06.694Z,988.55
2017-09-11T11:30:06.688Z,988.71
2017-09-11T11:31:06.682Z,988.75
2017-09-11T11:32:06.673Z,988.81
2017-09-11T11:33:06.667Z,988.73
2017-09-11T11:34:06.663Z,988.61
2017-09-11T11:35:06.658Z,988.8
2017-09-11T11:36:06.654Z,988.6
2017-09-11T11:37:06.647Z,988.8
2017-09-11T11:38:06.639Z,988.81
2017-09-11T11:39:06.635Z,988.73
2017-09-11T11:40:06.630Z,988.72
2017-09-11T11:41:06.625Z,988.72
2017-09-11T11:42:06.619Z,988.66
2017-09-11T11:43:06.617Z,988.69
2017-09-11T11:44:06.609Z,988.72
2017-09-11T11:45:06.613Z,988.74
2017-09-11T11:46:06.601Z,988.89
2017-09-11T11:47:06.599Z,988.92
2017-09-11T11:48:06.589Z,988.79
2017-09-11T11:49:06.586Z,988.8
2017-09-11T11:50:06.579Z,988.87
2017-09-11T11:51:06.580Z,988.7
2017-09-11T11:52:06.570Z,988.76
2017-09-11T11:53:06.563Z,988.85
2017-09-11T11:54:06.559Z,988.89
2017-09-11T11:55:06.552Z,988.84
2017-09-11T11:56:06.549Z,988.8
2017-09-11T11:57:06.542Z,988.73
2017-09-11T11:58:06.534Z,988.76
2017-09-11T11:59:06.531Z,988.83
2017-09-11T12:00:06.523Z,988.66
2017-09-11T12:01:06.517Z,988.6
2017-09-11T12:02:06.509Z,988.66
2017-09-11T12:03:06.502Z,988.68
2017-09-11T12:04:06.495Z,988.64
2017-09-11T12:05:06.492Z,988.61
2017-09-11T12:06:06.480Z,988.66
2017-09-11T12:07:06.471Z,988.67
2017-09-11T12:08:06.465Z,988.72
2017-09-11T12:09:06.456Z,988.81
2017-09-11T12:10:06.448Z,988.82
2017-09-11T12:11:06.440Z,988.79
2017-09-11T12:12:06.434Z,988.82
2017-09-11T12:13:06.427Z,988.8
2017-09-11T12:14:06.421Z,988.76
2017-09-11T12:15:06.415Z,988.76
2017-09-11T12:16:06.406Z,988.84
2017-09-11T12:17:06.402Z,988.78
2017-09-11T12:18:06.395Z,988.72
2017-09-11T12:19:06.389Z,988.76
2017-09-11T12:20:06.383Z,988.66
2017-09-11T12:21:06.376Z,988.76
2017-09-11T12:22:06.373Z,988.71
2017-09-11T12:23:06.364Z,988.67
2017-09-11T12:24:06.560Z,988.74
2017-09-11T12:25:06.350Z,988.6
2017-09-11T12:26:06.346Z,988.66
2017-09-11T12:27:06.336Z,988.7
2017-09-11T12:28:06.329Z,988.73
2017-09-11T12:29:06.320Z,988.74
2017-09-11T12:30:06.311Z,988.67
2017-09-11T12:31:06.303Z,988.67